sensor_id;sensor_type;location;lat;lon;timestamp;P1;durP1;ratioP1;P2;durP2;ratioP2
20627;SDS011;10473;42.734;24.258;2024-02-21T00:00:37;49.70;;;19.00;;
20627;SDS011;10473;42.734;24.258;2024-02-21T00:03:04;56.72;;;22.83;;
20627;SDS011;10473;42.734;24.258;2024-02-21T00:05:30;44.88;;;17.60;;
20627;SDS011;10473;42.734;24.258;2024-02-21T00:07:55;32.97;;;14.60;;
20627;SDS011;10473;42.734;24.258;2024-02-21T00:10:21;21.33;;;10.93;;
20627;SDS011;10473;42.734;24.258;2024-02-21T00:12:47;25.33;;;13.50;;
20627;SDS011;10473;42.734;24.258;2024-02-21T00:15:12;27.70;;;12.07;;
20627;SDS011;10473;42.734;24.258;2024-02-21T00:17:38;27.02;;;13.40;;
20627;SDS011;10473;42.734;24.258;2024-02-21T00:20:03;31.17;;;12.35;;
20627;SDS011;10473;42.734;24.258;2024-02-21T00:22:29;26.30;;;13.68;;
20627;SDS011;10473;42.734;24.258;2024-02-21T00:24:56;32.00;;;12.38;;
20627;SDS011;10473;42.734;24.258;2024-02-21T00:27:23;36.97;;;15.68;;
20627;SDS011;10473;42.734;24.258;2024-02-21T00:29:48;32.13;;;15.80;;
20627;SDS011;10473;42.734;24.258;2024-02-21T00:32:14;34.53;;;14.65;;
20627;SDS011;10473;42.734;24.258;2024-02-21T00:34:39;28.83;;;13.30;;
20627;SDS011;10473;42.734;24.258;2024-02-21T00:37:05;28.50;;;14.02;;
20627;SDS011;10473;42.734;24.258;2024-02-21T00:39:31;26.83;;;15.02;;
20627;SDS011;10473;42.734;24.258;2024-02-21T00:41:56;28.15;;;13.13;;
20627;SDS011;10473;42.734;24.258;2024-02-21T00:44:22;30.80;;;12.60;;
20627;SDS011;10473;42.734;24.258;2024-02-21T00:46:47;29.15;;;13.48;;
20627;SDS011;10473;42.734;24.258;2024-02-21T00:49:13;32.78;;;14.13;;
20627;SDS011;10473;42.734;24.258;2024-02-21T00:51:38;33.92;;;14.35;;
20627;SDS011;10473;42.734;24.258;2024-02-21T00:54:04;29.90;;;14.35;;
20627;SDS011;10473;42.734;24.258;2024-02-21T00:56:29;29.30;;;14.60;;
20627;SDS011;10473;42.734;24.258;2024-02-21T00:58:56;37.97;;;15.45;;
20627;SDS011;10473;42.734;24.258;2024-02-21T01:01:24;33.92;;;14.20;;
20627;SDS011;10473;42.734;24.258;2024-02-21T01:03:50;28.73;;;13.40;;
20627;SDS011;10473;42.734;24.258;2024-02-21T01:06:18;30.38;;;13.95;;
20627;SDS011;10473;42.734;24.258;2024-02-21T01:08:47;26.42;;;12.52;;
20627;SDS011;10473;42.734;24.258;2024-02-21T01:11:13;27.80;;;14.25;;
20627;SDS011;10473;42.734;24.258;2024-02-21T01:13:39;29.42;;;13.90;;
20627;SDS011;10473;42.734;24.258;2024-02-21T01:16:05;32.53;;;15.27;;
20627;SDS011;10473;42.734;24.258;2024-02-21T01:18:34;32.15;;;14.93;;
20627;SDS011;10473;42.734;24.258;2024-02-21T01:21:02;32.25;;;15.23;;
20627;SDS011;10473;42.734;24.258;2024-02-21T01:23:32;36.40;;;15.68;;
20627;SDS011;10473;42.734;24.258;2024-02-21T01:26:01;37.85;;;15.65;;
20627;SDS011;10473;42.734;24.258;2024-02-21T01:28:29;40.83;;;18.42;;
20627;SDS011;10473;42.734;24.258;2024-02-21T01:30:55;39.85;;;17.45;;
20627;SDS011;10473;42.734;24.258;2024-02-21T01:33:21;36.80;;;15.95;;
20627;SDS011;10473;42.734;24.258;2024-02-21T01:35:47;39.03;;;17.42;;
20627;SDS011;10473;42.734;24.258;2024-02-21T01:38:12;42.88;;;16.77;;
20627;SDS011;10473;42.734;24.258;2024-02-21T01:40:41;46.83;;;18.25;;
20627;SDS011;10473;42.734;24.258;2024-02-21T01:43:16;40.72;;;17.13;;
20627;SDS011;10473;42.734;24.258;2024-02-21T01:46:18;41.45;;;18.25;;
20627;SDS011;10473;42.734;24.258;2024-02-21T01:48:37;41.95;;;17.40;;
20627;SDS011;10473;42.734;24.258;2024-02-21T01:51:02;48.00;;;18.75;;
20627;SDS011;10473;42.734;24.258;2024-02-21T01:53:30;36.80;;;16.20;;
20627;SDS011;10473;42.734;24.258;2024-02-21T01:56:00;44.60;;;19.05;;
20627;SDS011;10473;42.734;24.258;2024-02-21T01:58:26;45.47;;;18.02;;
20627;SDS011;10473;42.734;24.258;2024-02-21T02:00:54;40.53;;;16.92;;
20627;SDS011;10473;42.734;24.258;2024-02-21T02:03:21;42.42;;;17.75;;
20627;SDS011;10473;42.734;24.258;2024-02-21T02:05:48;49.28;;;18.92;;
20627;SDS011;10473;42.734;24.258;2024-02-21T02:08:21;47.22;;;19.13;;
20627;SDS011;10473;42.734;24.258;2024-02-21T02:10:49;43.72;;;19.17;;
20627;SDS011;10473;42.734;24.258;2024-02-21T02:13:15;45.13;;;20.55;;
20627;SDS011;10473;42.734;24.258;2024-02-21T02:15:42;43.03;;;18.02;;
20627;SDS011;10473;42.734;24.258;2024-02-21T02:18:11;41.50;;;19.10;;
20627;SDS011;10473;42.734;24.258;2024-02-21T02:20:38;43.80;;;18.30;;
20627;SDS011;10473;42.734;24.258;2024-02-21T02:25:51;32.15;;;14.10;;
20627;SDS011;10473;42.734;24.258;2024-02-21T02:28:19;37.30;;;16.00;;
20627;SDS011;10473;42.734;24.258;2024-02-21T02:30:45;32.25;;;14.73;;
20627;SDS011;10473;42.734;24.258;2024-02-21T02:33:11;38.92;;;14.77;;
20627;SDS011;10473;42.734;24.258;2024-02-21T02:35:37;37.78;;;15.50;;
20627;SDS011;10473;42.734;24.258;2024-02-21T02:38:03;34.92;;;15.68;;
20627;SDS011;10473;42.734;24.258;2024-02-21T02:40:29;43.40;;;16.02;;
20627;SDS011;10473;42.734;24.258;2024-02-21T02:42:55;38.50;;;16.10;;
20627;SDS011;10473;42.734;24.258;2024-02-21T02:45:21;41.35;;;16.30;;
20627;SDS011;10473;42.734;24.258;2024-02-21T02:47:53;50.55;;;22.30;;
20627;SDS011;10473;42.734;24.258;2024-02-21T02:50:25;37.83;;;17.25;;
20627;SDS011;10473;42.734;24.258;2024-02-21T02:52:52;35.47;;;14.98;;
20627;SDS011;10473;42.734;24.258;2024-02-21T02:55:18;39.05;;;16.75;;
20627;SDS011;10473;42.734;24.258;2024-02-21T02:57:44;41.00;;;16.60;;
20627;SDS011;10473;42.734;24.258;2024-02-21T03:00:10;34.25;;;14.63;;
20627;SDS011;10473;42.734;24.258;2024-02-21T03:02:37;35.38;;;14.75;;
20627;SDS011;10473;42.734;24.258;2024-02-21T03:05:11;36.10;;;14.95;;
20627;SDS011;10473;42.734;24.258;2024-02-21T03:07:46;38.70;;;16.13;;
20627;SDS011;10473;42.734;24.258;2024-02-21T03:10:12;39.03;;;15.75;;
20627;SDS011;10473;42.734;24.258;2024-02-21T03:12:39;36.38;;;15.27;;
20627;SDS011;10473;42.734;24.258;2024-02-21T03:15:05;38.30;;;17.15;;
20627;SDS011;10473;42.734;24.258;2024-02-21T03:17:31;33.83;;;14.18;;
20627;SDS011;10473;42.734;24.258;2024-02-21T03:19:59;38.30;;;13.45;;
20627;SDS011;10473;42.734;24.258;2024-02-21T03:22:25;33.20;;;14.45;;
20627;SDS011;10473;42.734;24.258;2024-02-21T03:24:50;31.08;;;15.05;;
20627;SDS011;10473;42.734;24.258;2024-02-21T03:27:16;32.22;;;14.05;;
20627;SDS011;10473;42.734;24.258;2024-02-21T03:29:42;39.45;;;15.00;;
20627;SDS011;10473;42.734;24.258;2024-02-21T03:32:07;32.40;;;13.73;;
20627;SDS011;10473;42.734;24.258;2024-02-21T03:34:33;40.42;;;19.67;;
20627;SDS011;10473;42.734;24.258;2024-02-21T03:36:58;35.90;;;17.27;;
20627;SDS011;10473;42.734;24.258;2024-02-21T03:39:25;35.95;;;15.65;;
20627;SDS011;10473;42.734;24.258;2024-02-21T03:41:50;40.33;;;14.95;;
20627;SDS011;10473;42.734;24.258;2024-02-21T03:44:16;35.90;;;14.63;;
20627;SDS011;10473;42.734;24.258;2024-02-21T03:46:42;36.97;;;15.65;;
20627;SDS011;10473;42.734;24.258;2024-02-21T03:49:07;37.47;;;17.58;;
20627;SDS011;10473;42.734;24.258;2024-02-21T03:51:33;31.45;;;15.00;;
20627;SDS011;10473;42.734;24.258;2024-02-21T03:53:58;34.65;;;14.27;;
20627;SDS011;10473;42.734;24.258;2024-02-21T03:56:24;35.70;;;13.32;;
20627;SDS011;10473;42.734;24.258;2024-02-21T03:58:49;37.92;;;15.27;;
20627;SDS011;10473;42.734;24.258;2024-02-21T04:01:15;38.90;;;15.80;;
20627;SDS011;10473;42.734;24.258;2024-02-21T04:03:42;30.80;;;17.15;;
20627;SDS011;10473;42.734;24.258;2024-02-21T04:06:08;35.30;;;16.92;;
20627;SDS011;10473;42.734;24.258;2024-02-21T04:08:34;35.88;;;15.32;;
20627;SDS011;10473;42.734;24.258;2024-02-21T04:10:59;38.17;;;13.30;;
20627;SDS011;10473;42.734;24.258;2024-02-21T04:13:25;36.00;;;15.00;;
20627;SDS011;10473;42.734;24.258;2024-02-21T04:15:50;35.08;;;16.20;;
20627;SDS011;10473;42.734;24.258;2024-02-21T04:18:16;33.13;;;14.27;;
20627;SDS011;10473;42.734;24.258;2024-02-21T04:20:42;34.28;;;14.40;;
20627;SDS011;10473;42.734;24.258;2024-02-21T04:23:07;43.95;;;20.92;;
20627;SDS011;10473;42.734;24.258;2024-02-21T04:25:33;55.78;;;18.83;;
20627;SDS011;10473;42.734;24.258;2024-02-21T04:27:58;49.42;;;15.82;;
20627;SDS011;10473;42.734;24.258;2024-02-21T04:30:24;77.05;;;28.15;;
20627;SDS011;10473;42.734;24.258;2024-02-21T04:32:50;67.35;;;24.05;;
20627;SDS011;10473;42.734;24.258;2024-02-21T04:35:16;62.90;;;24.73;;
20627;SDS011;10473;42.734;24.258;2024-02-21T04:37:41;61.67;;;22.50;;
20627;SDS011;10473;42.734;24.258;2024-02-21T04:40:07;76.57;;;28.25;;
20627;SDS011;10473;42.734;24.258;2024-02-21T04:42:34;65.72;;;23.65;;
20627;SDS011;10473;42.734;24.258;2024-02-21T04:44:59;59.78;;;19.48;;
20627;SDS011;10473;42.734;24.258;2024-02-21T04:47:26;54.95;;;23.60;;
20627;SDS011;10473;42.734;24.258;2024-02-21T04:49:52;52.95;;;21.13;;
20627;SDS011;10473;42.734;24.258;2024-02-21T04:52:17;47.40;;;20.17;;
20627;SDS011;10473;42.734;24.258;2024-02-21T04:54:43;51.80;;;19.30;;
20627;SDS011;10473;42.734;24.258;2024-02-21T04:57:09;50.45;;;18.05;;
20627;SDS011;10473;42.734;24.258;2024-02-21T04:59:35;43.58;;;17.70;;
20627;SDS011;10473;42.734;24.258;2024-02-21T05:02:01;34.45;;;13.90;;
20627;SDS011;10473;42.734;24.258;2024-02-21T05:04:27;36.40;;;15.68;;
20627;SDS011;10473;42.734;24.258;2024-02-21T05:06:53;33.13;;;15.30;;
20627;SDS011;10473;42.734;24.258;2024-02-21T05:09:18;34.13;;;13.07;;
20627;SDS011;10473;42.734;24.258;2024-02-21T05:11:44;42.20;;;16.08;;
20627;SDS011;10473;42.734;24.258;2024-02-21T05:14:09;37.40;;;15.75;;
20627;SDS011;10473;42.734;24.258;2024-02-21T05:16:35;36.28;;;15.00;;
20627;SDS011;10473;42.734;24.258;2024-02-21T05:19:00;38.45;;;16.23;;
20627;SDS011;10473;42.734;24.258;2024-02-21T05:21:26;39.60;;;14.85;;
20627;SDS011;10473;42.734;24.258;2024-02-21T05:23:53;36.42;;;17.20;;
20627;SDS011;10473;42.734;24.258;2024-02-21T05:26:22;40.58;;;16.27;;
20627;SDS011;10473;42.734;24.258;2024-02-21T05:28:49;34.28;;;15.75;;
20627;SDS011;10473;42.734;24.258;2024-02-21T05:31:15;40.03;;;17.00;;
20627;SDS011;10473;42.734;24.258;2024-02-21T05:33:44;60.03;;;23.40;;
20627;SDS011;10473;42.734;24.258;2024-02-21T05:36:10;89.43;;;31.60;;
20627;SDS011;10473;42.734;24.258;2024-02-21T05:38:36;77.80;;;25.25;;
20627;SDS011;10473;42.734;24.258;2024-02-21T05:41:02;59.30;;;22.17;;
20627;SDS011;10473;42.734;24.258;2024-02-21T05:43:28;44.08;;;15.73;;
20627;SDS011;10473;42.734;24.258;2024-02-21T05:45:54;48.03;;;20.08;;
20627;SDS011;10473;42.734;24.258;2024-02-21T05:48:20;68.25;;;24.20;;
20627;SDS011;10473;42.734;24.258;2024-02-21T05:50:50;98.28;;;35.42;;
20627;SDS011;10473;42.734;24.258;2024-02-21T05:53:16;48.97;;;19.88;;
20627;SDS011;10473;42.734;24.258;2024-02-21T05:55:41;42.83;;;16.65;;
20627;SDS011;10473;42.734;24.258;2024-02-21T05:58:07;38.65;;;14.77;;
20627;SDS011;10473;42.734;24.258;2024-02-21T06:00:35;43.03;;;15.77;;
20627;SDS011;10473;42.734;24.258;2024-02-21T06:03:00;39.38;;;15.25;;
20627;SDS011;10473;42.734;24.258;2024-02-21T06:05:27;39.47;;;14.02;;
20627;SDS011;10473;42.734;24.258;2024-02-21T06:07:55;38.78;;;14.35;;
20627;SDS011;10473;42.734;24.258;2024-02-21T06:10:21;38.70;;;16.08;;
20627;SDS011;10473;42.734;24.258;2024-02-21T06:12:46;38.30;;;14.73;;
20627;SDS011;10473;42.734;24.258;2024-02-21T06:15:12;36.42;;;15.63;;
20627;SDS011;10473;42.734;24.258;2024-02-21T06:17:37;37.90;;;14.57;;
20627;SDS011;10473;42.734;24.258;2024-02-21T06:20:03;36.95;;;15.38;;
20627;SDS011;10473;42.734;24.258;2024-02-21T06:22:30;37.38;;;15.13;;
20627;SDS011;10473;42.734;24.258;2024-02-21T06:24:56;40.72;;;16.27;;
20627;SDS011;10473;42.734;24.258;2024-02-21T06:27:21;35.95;;;14.60;;
20627;SDS011;10473;42.734;24.258;2024-02-21T06:29:47;33.20;;;13.88;;
20627;SDS011;10473;42.734;24.258;2024-02-21T06:34:59;41.13;;;15.07;;
20627;SDS011;10473;42.734;24.258;2024-02-21T06:37:27;34.13;;;14.50;;
20627;SDS011;10473;42.734;24.258;2024-02-21T06:39:52;48.65;;;19.95;;
20627;SDS011;10473;42.734;24.258;2024-02-21T06:42:18;40.00;;;15.38;;
20627;SDS011;10473;42.734;24.258;2024-02-21T06:44:44;28.33;;;13.45;;
20627;SDS011;10473;42.734;24.258;2024-02-21T06:47:10;48.90;;;21.25;;
20627;SDS011;10473;42.734;24.258;2024-02-21T06:49:35;42.60;;;18.85;;
20627;SDS011;10473;42.734;24.258;2024-02-21T06:52:04;46.35;;;20.77;;
20627;SDS011;10473;42.734;24.258;2024-02-21T06:54:30;31.05;;;13.80;;
20627;SDS011;10473;42.734;24.258;2024-02-21T06:56:56;41.30;;;20.95;;
20627;SDS011;10473;42.734;24.258;2024-02-21T06:59:21;32.53;;;14.85;;
20627;SDS011;10473;42.734;24.258;2024-02-21T07:01:48;27.33;;;12.93;;
20627;SDS011;10473;42.734;24.258;2024-02-21T07:04:14;26.85;;;13.32;;
20627;SDS011;10473;42.734;24.258;2024-02-21T07:06:40;35.30;;;15.75;;
20627;SDS011;10473;42.734;24.258;2024-02-21T07:09:05;33.78;;;14.88;;
20627;SDS011;10473;42.734;24.258;2024-02-21T07:11:31;29.70;;;11.88;;
20627;SDS011;10473;42.734;24.258;2024-02-21T07:13:56;26.85;;;11.48;;
20627;SDS011;10473;42.734;24.258;2024-02-21T07:16:22;21.83;;;11.30;;
20627;SDS011;10473;42.734;24.258;2024-02-21T07:18:47;28.85;;;13.75;;
20627;SDS011;10473;42.734;24.258;2024-02-21T07:21:13;31.20;;;13.90;;
20627;SDS011;10473;42.734;24.258;2024-02-21T07:23:43;33.65;;;14.40;;
20627;SDS011;10473;42.734;24.258;2024-02-21T07:26:08;29.55;;;13.57;;
20627;SDS011;10473;42.734;24.258;2024-02-21T07:28:34;28.65;;;13.63;;
20627;SDS011;10473;42.734;24.258;2024-02-21T07:31:00;35.50;;;13.85;;
20627;SDS011;10473;42.734;24.258;2024-02-21T07:33:25;40.33;;;16.55;;
20627;SDS011;10473;42.734;24.258;2024-02-21T07:35:51;31.77;;;13.25;;
20627;SDS011;10473;42.734;24.258;2024-02-21T07:38:16;29.75;;;15.82;;
20627;SDS011;10473;42.734;24.258;2024-02-21T07:40:46;31.05;;;13.50;;
20627;SDS011;10473;42.734;24.258;2024-02-21T07:43:11;31.02;;;13.85;;
20627;SDS011;10473;42.734;24.258;2024-02-21T07:45:37;25.08;;;12.60;;
20627;SDS011;10473;42.734;24.258;2024-02-21T07:48:04;32.63;;;13.98;;
20627;SDS011;10473;42.734;24.258;2024-02-21T07:50:30;23.42;;;10.43;;
20627;SDS011;10473;42.734;24.258;2024-02-21T07:52:56;19.50;;;9.75;;
20627;SDS011;10473;42.734;24.258;2024-02-21T07:55:22;18.58;;;11.02;;
20627;SDS011;10473;42.734;24.258;2024-02-21T07:57:47;22.40;;;11.35;;
20627;SDS011;10473;42.734;24.258;2024-02-21T08:00:13;27.52;;;13.73;;
20627;SDS011;10473;42.734;24.258;2024-02-21T08:02:48;25.10;;;13.70;;
20627;SDS011;10473;42.734;24.258;2024-02-21T08:05:14;28.25;;;11.13;;
20627;SDS011;10473;42.734;24.258;2024-02-21T08:07:40;23.00;;;13.27;;
20627;SDS011;10473;42.734;24.258;2024-02-21T08:10:05;23.65;;;10.20;;
20627;SDS011;10473;42.734;24.258;2024-02-21T08:12:34;21.67;;;10.88;;
20627;SDS011;10473;42.734;24.258;2024-02-21T08:15:00;24.10;;;10.82;;
20627;SDS011;10473;42.734;24.258;2024-02-21T08:17:26;17.65;;;8.27;;
20627;SDS011;10473;42.734;24.258;2024-02-21T08:19:51;20.33;;;10.77;;
20627;SDS011;10473;42.734;24.258;2024-02-21T08:22:17;24.90;;;12.27;;
20627;SDS011;10473;42.734;24.258;2024-02-21T08:24:43;22.45;;;11.75;;
20627;SDS011;10473;42.734;24.258;2024-02-21T08:27:08;19.58;;;9.75;;
20627;SDS011;10473;42.734;24.258;2024-02-21T08:29:34;17.42;;;9.43;;
20627;SDS011;10473;42.734;24.258;2024-02-21T08:31:59;21.58;;;10.68;;
20627;SDS011;10473;42.734;24.258;2024-02-21T08:34:25;18.27;;;11.75;;
20627;SDS011;10473;42.734;24.258;2024-02-21T08:36:50;29.98;;;13.02;;
20627;SDS011;10473;42.734;24.258;2024-02-21T08:39:16;19.17;;;11.65;;
20627;SDS011;10473;42.734;24.258;2024-02-21T08:41:42;15.50;;;9.25;;
20627;SDS011;10473;42.734;24.258;2024-02-21T08:44:08;26.70;;;12.18;;
20627;SDS011;10473;42.734;24.258;2024-02-21T08:46:33;16.77;;;11.40;;
20627;SDS011;10473;42.734;24.258;2024-02-21T08:48:59;19.35;;;11.00;;
20627;SDS011;10473;42.734;24.258;2024-02-21T08:51:24;21.83;;;11.32;;
20627;SDS011;10473;42.734;24.258;2024-02-21T08:53:50;16.58;;;10.15;;
20627;SDS011;10473;42.734;24.258;2024-02-21T08:56:16;17.92;;;8.40;;
20627;SDS011;10473;42.734;24.258;2024-02-21T08:58:43;18.08;;;10.85;;
20627;SDS011;10473;42.734;24.258;2024-02-21T09:01:08;21.48;;;10.02;;
20627;SDS011;10473;42.734;24.258;2024-02-21T09:03:37;23.60;;;11.52;;
20627;SDS011;10473;42.734;24.258;2024-02-21T09:06:06;15.18;;;9.68;;
20627;SDS011;10473;42.734;24.258;2024-02-21T09:08:33;16.58;;;9.95;;
20627;SDS011;10473;42.734;24.258;2024-02-21T09:11:01;14.65;;;9.98;;
20627;SDS011;10473;42.734;24.258;2024-02-21T09:13:27;14.05;;;8.32;;
20627;SDS011;10473;42.734;24.258;2024-02-21T09:15:53;14.68;;;9.07;;
20627;SDS011;10473;42.734;24.258;2024-02-21T09:18:19;15.32;;;9.35;;
20627;SDS011;10473;42.734;24.258;2024-02-21T09:20:44;13.40;;;7.85;;
20627;SDS011;10473;42.734;24.258;2024-02-21T09:23:10;15.95;;;9.80;;
20627;SDS011;10473;42.734;24.258;2024-02-21T09:25:37;15.07;;;8.95;;
20627;SDS011;10473;42.734;24.258;2024-02-21T09:28:02;12.20;;;7.38;;
20627;SDS011;10473;42.734;24.258;2024-02-21T09:30:28;14.68;;;8.85;;
20627;SDS011;10473;42.734;24.258;2024-02-21T09:32:55;15.30;;;8.63;;
20627;SDS011;10473;42.734;24.258;2024-02-21T09:35:23;13.85;;;7.88;;
20627;SDS011;10473;42.734;24.258;2024-02-21T09:37:51;16.52;;;10.90;;
20627;SDS011;10473;42.734;24.258;2024-02-21T09:40:22;14.27;;;9.43;;
20627;SDS011;10473;42.734;24.258;2024-02-21T09:42:50;12.90;;;7.10;;
20627;SDS011;10473;42.734;24.258;2024-02-21T09:45:27;13.23;;;9.80;;
20627;SDS011;10473;42.734;24.258;2024-02-21T09:50:36;15.60;;;8.23;;
20627;SDS011;10473;42.734;24.258;2024-02-21T09:53:05;12.57;;;7.13;;
20627;SDS011;10473;42.734;24.258;2024-02-21T09:55:34;39.95;;;17.30;;
20627;SDS011;10473;42.734;24.258;2024-02-21T09:58:03;14.88;;;9.40;;
20627;SDS011;10473;42.734;24.258;2024-02-21T10:00:29;11.93;;;8.40;;
20627;SDS011;10473;42.734;24.258;2024-02-21T10:02:55;24.17;;;14.63;;
20627;SDS011;10473;42.734;24.258;2024-02-21T10:05:20;14.65;;;10.63;;
20627;SDS011;10473;42.734;24.258;2024-02-21T10:07:46;10.02;;;7.25;;
20627;SDS011;10473;42.734;24.258;2024-02-21T10:10:15;14.40;;;8.35;;
20627;SDS011;10473;42.734;24.258;2024-02-21T10:12:48;12.88;;;7.45;;
20627;SDS011;10473;42.734;24.258;2024-02-21T10:15:19;16.90;;;11.75;;
20627;SDS011;10473;42.734;24.258;2024-02-21T10:17:46;12.80;;;9.30;;
20627;SDS011;10473;42.734;24.258;2024-02-21T10:20:11;9.52;;;6.43;;
20627;SDS011;10473;42.734;24.258;2024-02-21T10:22:42;13.32;;;9.15;;
20627;SDS011;10473;42.734;24.258;2024-02-21T10:25:13;8.50;;;7.25;;
20627;SDS011;10473;42.734;24.258;2024-02-21T10:27:39;10.95;;;7.35;;
20627;SDS011;10473;42.734;24.258;2024-02-21T10:30:12;10.05;;;7.93;;
20627;SDS011;10473;42.734;24.258;2024-02-21T10:32:51;10.10;;;5.90;;
20627;SDS011;10473;42.734;24.258;2024-02-21T10:35:27;9.43;;;6.93;;
20627;SDS011;10473;42.734;24.258;2024-02-21T10:37:59;11.43;;;6.68;;
20627;SDS011;10473;42.734;24.258;2024-02-21T10:40:28;7.60;;;6.40;;
20627;SDS011;10473;42.734;24.258;2024-02-21T10:42:59;12.70;;;9.45;;
20627;SDS011;10473;42.734;24.258;2024-02-21T10:45:29;9.68;;;6.80;;
20627;SDS011;10473;42.734;24.258;2024-02-21T10:48:01;9.68;;;6.63;;
20627;SDS011;10473;42.734;24.258;2024-02-21T10:50:36;8.90;;;7.45;;
20627;SDS011;10473;42.734;24.258;2024-02-21T10:53:44;10.85;;;5.85;;
20627;SDS011;10473;42.734;24.258;2024-02-21T10:58:53;8.88;;;6.90;;
20627;SDS011;10473;42.734;24.258;2024-02-21T11:01:20;16.73;;;10.65;;
20627;SDS011;10473;42.734;24.258;2024-02-21T11:03:47;17.75;;;9.77;;
20627;SDS011;10473;42.734;24.258;2024-02-21T11:06:14;14.85;;;7.85;;
20627;SDS011;10473;42.734;24.258;2024-02-21T11:08:42;13.73;;;8.18;;
20627;SDS011;10473;42.734;24.258;2024-02-21T11:11:11;9.10;;;6.55;;
20627;SDS011;10473;42.734;24.258;2024-02-21T11:13:42;4.88;;;4.38;;
20627;SDS011;10473;42.734;24.258;2024-02-21T11:16:08;6.25;;;4.03;;
20627;SDS011;10473;42.734;24.258;2024-02-21T11:18:38;7.22;;;4.68;;
20627;SDS011;10473;42.734;24.258;2024-02-21T11:21:04;9.40;;;6.75;;
20627;SDS011;10473;42.734;24.258;2024-02-21T11:23:30;9.93;;;6.95;;
20627;SDS011;10473;42.734;24.258;2024-02-21T11:26:06;6.97;;;5.68;;
20627;SDS011;10473;42.734;24.258;2024-02-21T11:28:31;11.73;;;6.00;;
20627;SDS011;10473;42.734;24.258;2024-02-21T11:31:07;7.15;;;3.70;;
20627;SDS011;10473;42.734;24.258;2024-02-21T11:33:34;4.43;;;4.05;;
20627;SDS011;10473;42.734;24.258;2024-02-21T11:36:00;7.82;;;3.95;;
20627;SDS011;10473;42.734;24.258;2024-02-21T11:38:26;4.10;;;3.58;;
20627;SDS011;10473;42.734;24.258;2024-02-21T11:40:52;12.35;;;5.78;;
20627;SDS011;10473;42.734;24.258;2024-02-21T11:43:17;10.50;;;5.68;;
20627;SDS011;10473;42.734;24.258;2024-02-21T11:45:43;9.38;;;6.68;;
20627;SDS011;10473;42.734;24.258;2024-02-21T11:48:08;5.05;;;4.30;;
20627;SDS011;10473;42.734;24.258;2024-02-21T11:50:34;6.03;;;4.70;;
20627;SDS011;10473;42.734;24.258;2024-02-21T11:53:01;4.25;;;3.92;;
20627;SDS011;10473;42.734;24.258;2024-02-21T11:55:27;3.45;;;3.15;;
20627;SDS011;10473;42.734;24.258;2024-02-21T11:57:53;2.97;;;2.80;;
20627;SDS011;10473;42.734;24.258;2024-02-21T12:00:19;3.53;;;3.22;;
20627;SDS011;10473;42.734;24.258;2024-02-21T12:02:49;2.10;;;1.55;;
20627;SDS011;10473;42.734;24.258;2024-02-21T12:05:16;3.55;;;2.45;;
20627;SDS011;10473;42.734;24.258;2024-02-21T12:07:43;2.97;;;2.78;;
20627;SDS011;10473;42.734;24.258;2024-02-21T12:10:10;2.28;;;2.17;;
20627;SDS011;10473;42.734;24.258;2024-02-21T12:12:36;3.15;;;2.13;;
20627;SDS011;10473;42.734;24.258;2024-02-21T12:15:06;2.90;;;2.42;;
20627;SDS011;10473;42.734;24.258;2024-02-21T12:17:32;2.72;;;2.47;;
20627;SDS011;10473;42.734;24.258;2024-02-21T12:19:59;7.03;;;3.70;;
20627;SDS011;10473;42.734;24.258;2024-02-21T12:22:25;5.10;;;4.53;;
20627;SDS011;10473;42.734;24.258;2024-02-21T12:24:51;6.20;;;3.95;;
20627;SDS011;10473;42.734;24.258;2024-02-21T12:27:16;5.03;;;3.65;;
20627;SDS011;10473;42.734;24.258;2024-02-21T12:29:42;6.05;;;5.43;;
20627;SDS011;10473;42.734;24.258;2024-02-21T12:32:08;4.72;;;2.60;;
20627;SDS011;10473;42.734;24.258;2024-02-21T12:34:33;4.25;;;3.45;;
20627;SDS011;10473;42.734;24.258;2024-02-21T12:36:59;4.85;;;4.25;;
20627;SDS011;10473;42.734;24.258;2024-02-21T12:39:24;6.82;;;4.45;;
20627;SDS011;10473;42.734;24.258;2024-02-21T12:41:53;6.47;;;5.85;;
20627;SDS011;10473;42.734;24.258;2024-02-21T12:44:21;8.35;;;3.92;;
20627;SDS011;10473;42.734;24.258;2024-02-21T12:46:46;6.30;;;5.68;;
20627;SDS011;10473;42.734;24.258;2024-02-21T12:49:16;5.25;;;4.53;;
20627;SDS011;10473;42.734;24.258;2024-02-21T12:51:43;5.65;;;3.17;;
20627;SDS011;10473;42.734;24.258;2024-02-21T12:54:09;3.58;;;2.78;;
20627;SDS011;10473;42.734;24.258;2024-02-21T12:56:36;8.40;;;4.82;;
20627;SDS011;10473;42.734;24.258;2024-02-21T12:59:02;3.78;;;3.25;;
20627;SDS011;10473;42.734;24.258;2024-02-21T13:01:27;9.95;;;5.07;;
20627;SDS011;10473;42.734;24.258;2024-02-21T13:03:53;7.75;;;5.88;;
20627;SDS011;10473;42.734;24.258;2024-02-21T13:06:19;7.35;;;4.88;;
20627;SDS011;10473;42.734;24.258;2024-02-21T13:08:45;8.93;;;5.47;;
20627;SDS011;10473;42.734;24.258;2024-02-21T13:11:11;11.32;;;4.93;;
20627;SDS011;10473;42.734;24.258;2024-02-21T13:13:37;8.85;;;5.28;;
20627;SDS011;10473;42.734;24.258;2024-02-21T13:16:03;3.42;;;3.13;;
20627;SDS011;10473;42.734;24.258;2024-02-21T13:18:29;4.72;;;3.50;;
20627;SDS011;10473;42.734;24.258;2024-02-21T13:20:54;3.72;;;3.38;;
20627;SDS011;10473;42.734;24.258;2024-02-21T13:23:20;5.38;;;4.13;;
20627;SDS011;10473;42.734;24.258;2024-02-21T13:25:48;5.82;;;4.70;;
20627;SDS011;10473;42.734;24.258;2024-02-21T13:28:14;3.30;;;1.92;;
20627;SDS011;10473;42.734;24.258;2024-02-21T13:30:41;6.25;;;4.32;;
20627;SDS011;10473;42.734;24.258;2024-02-21T13:33:07;11.10;;;5.10;;
20627;SDS011;10473;42.734;24.258;2024-02-21T13:35:35;2.92;;;2.63;;
20627;SDS011;10473;42.734;24.258;2024-02-21T13:38:01;2.65;;;2.45;;
20627;SDS011;10473;42.734;24.258;2024-02-21T13:40:28;3.58;;;3.22;;
20627;SDS011;10473;42.734;24.258;2024-02-21T13:42:54;10.48;;;7.35;;
20627;SDS011;10473;42.734;24.258;2024-02-21T13:45:20;24.50;;;12.15;;
20627;SDS011;10473;42.734;24.258;2024-02-21T13:47:45;49.67;;;15.43;;
20627;SDS011;10473;42.734;24.258;2024-02-21T13:50:11;34.60;;;15.48;;
20627;SDS011;10473;42.734;24.258;2024-02-21T13:52:39;35.00;;;14.80;;
20627;SDS011;10473;42.734;24.258;2024-02-21T13:55:08;43.55;;;17.75;;
20627;SDS011;10473;42.734;24.258;2024-02-21T13:57:34;10.27;;;6.35;;
20627;SDS011;10473;42.734;24.258;2024-02-21T14:00:01;5.93;;;4.03;;
20627;SDS011;10473;42.734;24.258;2024-02-21T14:02:28;5.78;;;3.78;;
20627;SDS011;10473;42.734;24.258;2024-02-21T14:04:53;17.80;;;6.40;;
20627;SDS011;10473;42.734;24.258;2024-02-21T14:07:20;16.92;;;7.68;;
20627;SDS011;10473;42.734;24.258;2024-02-21T14:09:45;8.98;;;6.15;;
20627;SDS011;10473;42.734;24.258;2024-02-21T14:12:11;19.95;;;9.77;;
20627;SDS011;10473;42.734;24.258;2024-02-21T14:14:37;7.40;;;4.95;;
20627;SDS011;10473;42.734;24.258;2024-02-21T14:17:02;5.60;;;3.50;;
20627;SDS011;10473;42.734;24.258;2024-02-21T14:19:29;5.85;;;5.45;;
20627;SDS011;10473;42.734;24.258;2024-02-21T14:21:55;3.33;;;3.13;;
20627;SDS011;10473;42.734;24.258;2024-02-21T14:24:23;2.50;;;2.33;;